Time;durP1;ratioP1;P1;durP2;ratioP2;P2;SDS_P1;SDS_P2;PMS_P1;PMS_P2;Temp;Humidity;BMP_temperature;BMP_pressure;BME280_temperature;BME280_humidity;BME280_pressure;Samples;Min_cycle;Max_cycle;Signal;HPM_P1;HPM_P2
2022/01/10 00:01:53;;;;;;;17.33;7.10;;;;;;;6.63;92.70;100105.72;5021850;28;20523;-88
2022/01/10 00:04:20;;;;;;;15.65;6.32;;;;;;;6.63;92.83;100112.03;5024820;28;20041;-88
2022/01/10 00:06:47;;;;;;;18.35;7.00;;;;;;;6.64;93.01;100113.66;5009426;28;20085;-88
2022/01/10 00:09:14;;;;;;;14.85;6.47;;;;;;;6.62;92.92;100110.41;5027735;28;20041;-84
2022/01/10 00:11:41;;;;;;;13.30;6.18;;;;;;;6.62;93.13;100120.59;5026764;28;20075;-88
2022/01/10 00:14:07;;;;;;;13.25;6.95;;;;;;;6.59;93.17;100124.03;5027296;28;20056;-88
2022/01/10 00:16:34;;;;;;;22.70;7.55;;;;;;;6.59;93.18;100129.53;5027088;28;20037;-87
2022/01/10 00:19:01;;;;;;;16.95;8.05;;;;;;;6.58;93.33;100130.66;5010444;28;20060;-87
2022/01/10 00:21:28;;;;;;;22.23;8.95;;;;;;;6.57;93.43;100129.84;5025882;28;20111;-85
2022/01/10 00:23:55;;;;;;;23.02;8.73;;;;;;;6.55;93.58;100137.63;5026881;28;20469;-85
2022/01/10 00:26:22;;;;;;;22.77;9.32;;;;;;;6.56;93.31;100150.25;5027540;28;20038;-85
2022/01/10 00:28:49;;;;;;;20.45;10.13;;;;;;;6.57;93.39;100143.59;5028296;28;20088;-85
2022/01/10 00:31:15;;;;;;;16.80;9.05;;;;;;;6.57;93.41;100146.34;5009853;28;20123;-85
2022/01/10 00:33:42;;;;;;;21.20;11.02;;;;;;;6.57;93.71;100146.34;5028705;28;20065;-86
2022/01/10 00:36:09;;;;;;;19.75;9.23;;;;;;;6.59;93.39;100143.28;5027748;28;20037;-86
2022/01/10 00:38:36;;;;;;;22.40;10.90;;;;;;;6.60;93.64;100144.88;5023781;28;20129;-86
2022/01/10 00:41:03;;;;;;;28.77;11.07;;;;;;;6.60;93.96;100142.94;5025226;28;20041;-86
2022/01/10 00:43:32;;;;;;;22.83;11.48;;;;;;;6.62;93.43;100153.59;5026317;28;20045;-86
2022/01/10 00:46:03;;;;;;;32.70;10.85;;;;;;;6.63;93.87;100144.22;5024642;28;20524;-87
2022/01/10 00:48:30;;;;;;;25.45;9.40;;;;;;;6.65;93.91;100147.44;5025148;28;20149;-85
2022/01/10 00:50:57;;;;;;;24.05;10.18;;;;;;;6.65;93.90;100141.94;5026408;28;20124;-86
2022/01/10 00:53:25;;;;;;;21.75;9.38;;;;;;;6.66;93.76;100144.38;5025264;28;20120;-86
2022/01/10 00:55:52;;;;;;;29.52;11.38;;;;;;;6.67;93.86;100154.22;5008750;28;20030;-84
2022/01/10 00:58:19;;;;;;;24.00;10.15;;;;;;;6.67;93.89;100151.47;5026681;28;20040;-86
2022/01/10 01:00:46;;;;;;;24.67;10.48;;;;;;;6.68;93.77;100153.09;5024689;28;20131;-86
2022/01/10 01:03:14;;;;;;;31.30;11.43;;;;;;;6.70;93.94;100150.00;5025414;28;20615;-85
2022/01/10 01:05:43;;;;;;;23.33;9.32;;;;;;;6.71;94.13;100155.19;5009436;28;20500;-83
2022/01/10 01:08:11;;;;;;;24.27;8.15;;;;;;;6.72;94.18;100159.53;5024954;28;20048;-86
2022/01/10 01:13:25;;;;;;;28.52;8.82;;;;;;;6.74;94.23;100164.69;5024001;28;20413;-86
2022/01/10 01:26:33;;;;;;;25.95;9.63;;;;;;;6.79;94.08;100177.44;5025869;28;20029;-86
2022/01/10 01:29:02;;;;;;;27.35;9.45;;;;;;;6.80;94.34;100165.31;5025542;28;20528;-86
2022/01/10 01:31:29;;;;;;;24.20;8.63;;;;;;;6.80;94.24;100165.31;5024716;28;20068;-84
2022/01/10 01:33:56;;;;;;;25.92;8.95;;;;;;;6.80;94.40;100179.88;5009600;28;20385;-87
2022/01/10 01:36:25;;;;;;;22.77;8.68;;;;;;;6.82;94.26;100171.28;5023680;28;20037;-86
2022/01/10 01:38:54;;;;;;;25.75;9.48;;;;;;;6.84;94.48;100174.50;5024531;28;20038;-86
2022/01/10 01:43:54;;;;;;;22.25;7.82;;;;;;;6.85;94.51;100167.88;5026166;28;20194;-84
2022/01/10 01:46:22;;;;;;;21.55;7.53;;;;;;;6.86;94.49;100175.00;5001598;28;20103;-86
2022/01/10 01:48:50;;;;;;;21.63;7.78;;;;;;;6.85;94.44;100179.69;5007418;28;20079;-85
2022/01/10 01:51:18;;;;;;;17.42;6.53;;;;;;;6.87;94.78;100176.59;5026708;28;20129;-85
2022/01/10 01:53:45;;;;;;;13.90;6.43;;;;;;;6.88;94.87;100181.78;5025953;28;20067;-84
2022/01/10 01:56:14;;;;;;;14.20;4.97;;;;;;;6.89;94.54;100185.31;5025166;28;20041;-85
2022/01/10 01:58:45;;;;;;;16.70;5.05;;;;;;;6.91;94.83;100188.56;5008049;28;20048;-86
2022/01/10 02:01:16;;;;;;;12.00;4.88;;;;;;;6.91;94.72;100180.28;5003139;28;20038;-86
2022/01/10 02:03:44;;;;;;;;;;;;;;;6.89;94.89;100190.81;5023858;28;20045;-86
2022/01/10 02:06:12;;;;;;;15.07;4.70;;;;;;;6.90;94.54;100189.69;5007575;28;19932;-87
2022/01/10 02:08:40;;;;;;;12.20;4.68;;;;;;;6.89;94.61;100186.13;5024073;28;20485;-86
2022/01/10 02:11:09;;;;;;;14.50;5.03;;;;;;;6.90;94.94;100184.19;5025466;28;20166;-85
2022/01/10 02:13:37;;;;;;;11.93;5.18;;;;;;;6.91;94.98;100188.56;5008553;28;20053;-85
2022/01/10 02:16:06;;;;;;;10.80;4.40;;;;;;;6.90;95.18;100186.94;5023359;28;20049;-86
2022/01/10 02:18:33;;;;;;;13.10;4.85;;;;;;;6.91;94.99;100188.56;5023136;28;20050;-86
2022/01/10 02:21:03;;;;;;;14.45;4.85;;;;;;;6.90;95.17;100182.25;5026123;28;20034;-86
2022/01/10 02:23:31;;;;;;;16.92;4.78;;;;;;;6.90;95.23;100181.44;5023862;28;20151;-87
2022/01/10 02:25:59;;;;;;;10.52;4.38;;;;;;;6.91;95.41;100188.56;5023842;28;21058;-86
2022/01/10 02:28:27;;;;;;;18.10;5.35;;;;;;;6.89;95.36;100186.13;5023987;28;20033;-87
2022/01/10 02:30:58;;;;;;;14.85;4.63;;;;;;;6.90;95.62;100184.19;5022902;28;20052;-86
2022/01/10 02:33:28;;;;;;;11.10;4.15;;;;;;;6.89;95.80;100188.06;5025539;28;20474;-87
2022/01/10 02:39:00;;;;;;;13.55;4.45;;;;;;;6.88;96.02;100190.03;5020728;28;20634;-85
2022/01/10 02:41:34;;;;;;;11.13;4.25;;;;;;;6.87;96.05;100198.59;5025198;28;20130;-86
2022/01/10 02:44:05;;;;;;;15.27;4.40;;;;;;;6.89;96.02;100196.31;5023290;28;20052;-84
2022/01/10 02:46:34;;;;;;;12.15;3.95;;;;;;;6.90;96.21;100204.25;5024475;28;20057;-85
2022/01/10 02:49:12;;;;;;;11.95;4.38;;;;;;;6.90;96.42;100208.94;5024930;28;20038;-84
2022/01/10 02:51:39;;;;;;;14.25;4.78;;;;;;;6.91;96.42;100202.31;5024535;28;20049;-85
2022/01/10 02:54:07;;;;;;;12.43;4.68;;;;;;;6.91;96.41;100208.59;5024307;28;20042;-86
2022/01/10 02:56:44;;;;;;;14.30;5.07;;;;;;;6.91;96.69;100207.81;5023238;28;20091;-83
2022/01/10 02:59:10;;;;;;;11.13;5.15;;;;;;;6.91;96.73;100208.59;5006620;28;20044;-85
2022/01/10 03:01:37;;;;;;;18.25;5.75;;;;;;;6.92;96.58;100206.66;5022398;28;20045;-85
2022/01/10 03:04:04;;;;;;;8.48;4.55;;;;;;;6.92;97.03;100212.97;5022686;28;20195;-86
2022/01/10 03:06:32;;;;;;;10.90;5.30;;;;;;;6.94;96.93;100210.69;5022004;28;20069;-86
2022/01/10 03:09:05;;;;;;;12.85;5.22;;;;;;;6.95;97.01;100214.25;5022564;28;20048;-85
2022/01/10 03:11:33;;;;;;;12.38;4.80;;;;;;;6.95;97.04;100209.56;5025980;28;20515;-85
2022/01/10 03:14:00;;;;;;;8.38;3.97;;;;;;;6.96;97.24;100213.13;5023884;28;20068;-87
2022/01/10 03:16:27;;;;;;;7.63;4.18;;;;;;;6.97;97.57;100214.72;5021537;28;20046;-86
2022/01/10 03:18:57;;;;;;;10.63;4.93;;;;;;;6.97;97.47;100210.03;5022944;28;20099;-86
2022/01/10 03:21:23;;;;;;;11.48;4.72;;;;;;;6.99;97.60;100217.97;5023932;28;20060;-84
2022/01/10 03:23:51;;;;;;;5.72;3.60;;;;;;;7.00;97.83;100216.81;5022808;28;20037;-85
2022/01/10 03:26:19;;;;;;;8.10;3.55;;;;;;;7.01;97.65;100224.75;5023521;28;20037;-85
2022/01/10 03:28:47;;;;;;;6.38;3.42;;;;;;;7.03;97.79;100214.19;5023186;28;20056;-86
2022/01/10 03:31:14;;;;;;;7.53;3.70;;;;;;;7.04;98.13;100224.03;5023681;28;20033;-85
2022/01/10 03:33:41;;;;;;;7.07;3.45;;;;;;;7.06;98.19;100230.03;5023735;28;20048;-87
2022/01/10 03:36:07;;;;;;;5.95;2.85;;;;;;;7.06;98.32;100232.00;5021719;28;20125;-87
2022/01/10 03:38:34;;;;;;;7.40;2.83;;;;;;;7.08;98.30;100224.19;5023541;28;20045;-86
2022/01/10 03:41:01;;;;;;;4.30;2.33;;;;;;;7.09;98.45;100225.81;5025119;28;20043;-87
2022/01/10 03:43:29;;;;;;;6.00;2.40;;;;;;;7.10;98.52;100224.66;5028977;28;20037;-87
2022/01/10 03:45:57;;;;;;;4.63;2.67;;;;;;;7.11;98.63;100231.78;5026835;28;20128;-87
2022/01/10 03:48:24;;;;;;;6.15;2.42;;;;;;;7.12;98.76;100227.91;5027008;28;20045;-85
2022/01/10 03:50:51;;;;;;;5.78;2.35;;;;;;;7.12;98.79;100227.91;5012346;28;20044;-88
2022/01/10 03:53:17;;;;;;;3.95;1.83;;;;;;;7.13;98.94;100243.25;5027577;28;20041;-87
2022/01/10 03:55:44;;;;;;;7.25;2.03;;;;;;;7.13;98.88;100235.81;5025739;28;20059;-88
2022/01/10 03:58:11;;;;;;;3.72;1.85;;;;;;;7.14;98.85;100247.63;5025524;28;20041;-86
2022/01/10 04:00:38;;;;;;;2.70;1.50;;;;;;;7.15;99.25;100243.72;5026292;28;20160;-87
2022/01/10 04:03:06;;;;;;;3.60;1.90;;;;;;;7.16;99.13;100245.34;5011118;28;20411;-86
2022/01/10 04:05:34;;;;;;;4.88;1.90;;;;;;;7.17;99.29;100246.97;5028520;28;20034;-87
2022/01/10 04:08:02;;;;;;;4.55;2.25;;;;;;;7.18;99.36;100251.31;5028327;28;20041;-85
2022/01/10 04:10:29;;;;;;;7.45;2.10;;;;;;;7.20;99.56;100246.31;5027566;28;20092;-87
2022/01/10 04:12:56;;;;;;;6.45;2.45;;;;;;;7.20;99.66;100254.56;5025885;28;20688;-86
2022/01/10 04:15:23;;;;;;;7.40;2.33;;;;;;;7.21;99.55;100253.41;5027000;28;20855;-83
2022/01/10 04:17:55;;;;;;;6.05;2.40;;;;;;;7.22;99.48;100246.78;5029445;28;20045;-86
2022/01/10 04:20:24;;;;;;;5.40;2.50;;;;;;;7.24;99.87;100252.75;5026503;28;20037;-87
2022/01/10 04:22:52;;;;;;;6.25;2.83;;;;;;;7.25;99.85;100254.38;5026339;28;20564;-86
2022/01/10 04:25:19;;;;;;;7.43;2.95;;;;;;;7.26;99.75;100247.69;5025633;28;20063;-85
2022/01/10 04:27:46;;;;;;;6.07;3.35;;;;;;;7.26;99.80;100250.47;5026656;28;20041;-87
2022/01/10 04:30:13;;;;;;;8.38;4.57;;;;;;;7.27;99.91;100249.31;5026834;28;20045;-85
2022/01/10 04:32:43;;;;;;;10.73;4.90;;;;;;;7.28;100.00;100259.22;5026236;28;20040;-86
2022/01/10 04:35:10;;;;;;;10.57;4.28;;;;;;;7.30;100.00;100262.44;5026245;28;20045;-86
2022/01/10 04:37:38;;;;;;;9.90;5.18;;;;;;;7.29;100.00;100250.59;5025637;28;20079;-85
2022/01/10 04:40:07;;;;;;;8.82;4.68;;;;;;;7.30;100.00;100243.97;5026038;28;20050;-86
2022/01/10 04:42:35;;;;;;;7.70;4.70;;;;;;;7.31;100.00;100242.81;5026686;28;20120;-86
2022/01/10 04:45:03;;;;;;;7.38;4.38;;;;;;;7.32;100.00;100243.63;5009876;28;20144;-85
2022/01/10 04:47:29;;;;;;;11.10;4.45;;;;;;;7.34;100.00;100244.09;5026058;28;20053;-85
2022/01/10 04:52:29;;;;;;;9.23;4.78;;;;;;;7.34;100.00;100246.84;5024528;28;20123;-87
2022/01/10 04:54:57;;;;;;;5.63;4.00;;;;;;;7.36;100.00;100247.28;5026585;28;20065;-86
2022/01/10 04:57:24;;;;;;;10.00;4.75;;;;;;;7.37;100.00;100251.66;5025935;28;20048;-86
2022/01/10 04:59:50;;;;;;;9.30;5.05;;;;;;;7.36;100.00;100256.38;5026643;28;21632;-87
2022/01/10 05:02:17;;;;;;;6.93;4.93;;;;;;;7.40;100.00;100253.75;5025125;28;20033;-86
2022/01/10 05:04:44;;;;;;;8.65;5.63;;;;;;;7.40;100.00;100259.28;5023018;28;20041;-86
2022/01/10 05:07:11;;;;;;;8.40;5.40;;;;;;;7.40;100.00;100251.00;5008244;28;20463;-85
2022/01/10 05:09:38;;;;;;;8.10;5.40;;;;;;;7.41;100.00;100257.31;5026072;28;20037;-86
2022/01/10 05:12:06;;;;;;;9.23;5.35;;;;;;;7.42;100.00;100243.22;5002987;28;20041;-85
2022/01/10 05:14:35;;;;;;;9.82;6.38;;;;;;;7.41;100.00;100252.63;5025678;28;20045;-86
2022/01/10 05:17:02;;;;;;;10.35;4.75;;;;;;;7.42;100.00;100248.72;5027482;28;20040;-86
2022/01/10 05:19:29;;;;;;;13.35;5.22;;;;;;;7.43;100.00;100255.84;5009640;28;20041;-83
2022/01/10 05:21:56;;;;;;;8.23;4.88;;;;;;;7.45;100.00;100248.03;5024621;28;20052;-84
2022/01/10 05:24:26;;;;;;;9.95;4.47;;;;;;;7.47;100.00;100251.25;5024990;28;20037;-85
2022/01/10 05:26:53;;;;;;;10.05;4.78;;;;;;;7.49;100.00;100251.75;5025270;28;20047;-84
2022/01/10 05:29:19;;;;;;;11.32;4.80;;;;;;;7.50;100.00;100256.09;5025675;28;20075;-84
2022/01/10 05:31:46;;;;;;;11.48;5.50;;;;;;;7.51;100.00;100274.25;5007614;28;20056;-84
2022/01/10 05:34:14;;;;;;;9.35;4.30;;;;;;;7.52;100.00;100272.31;5023864;28;20107;-84
2022/01/10 05:36:41;;;;;;;9.20;4.95;;;;;;;7.53;100.00;100271.97;5008009;28;20056;-84
2022/01/10 05:39:08;;;;;;;7.10;4.22;;;;;;;7.55;100.00;100279.88;5026474;28;20038;-84
2022/01/10 05:41:35;;;;;;;7.70;3.67;;;;;;;7.56;100.00;100279.56;5008637;28;20040;-82
2022/01/10 05:44:03;;;;;;;8.88;4.05;;;;;;;7.57;100.00;100270.13;5024418;28;20044;-82
2022/01/10 05:46:31;;;;;;;6.30;3.63;;;;;;;7.59;100.00;100267.06;5023689;28;20075;-84
2022/01/10 05:49:02;;;;;;;7.40;3.25;;;;;;;7.60;100.00;100271.44;5027211;28;20116;-85
2022/01/10 05:51:36;;;;;;;8.57;3.50;;;;;;;7.62;100.00;100280.97;5024034;28;20425;-84
2022/01/10 05:54:05;;;;;;;6.60;3.05;;;;;;;7.64;100.00;100278.69;5025339;28;20045;-83
2022/01/10 05:56:33;;;;;;;9.65;2.80;;;;;;;7.66;100.00;100297.63;5025022;28;20118;-83
2022/01/10 05:59:01;;;;;;;7.82;3.08;;;;;;;7.69;100.00;100300.53;5025673;28;20462;-83
2022/01/10 06:01:29;;;;;;;5.82;2.90;;;;;;;7.69;100.00;100291.44;5023162;28;20045;-84
2022/01/10 06:03:59;;;;;;;4.65;2.45;;;;;;;7.71;100.00;100300.16;5023386;28;20049;-84
2022/01/10 06:06:25;;;;;;;7.18;3.17;;;;;;;7.74;100.00;100313.28;5025822;28;20586;-84
2022/01/10 06:08:52;;;;;;;5.95;2.47;;;;;;;7.74;100.00;100297.56;5024843;28;20052;-83
2022/01/10 06:11:19;;;;;;;13.18;2.95;;;;;;;7.76;100.00;100294.44;5024831;28;20091;-83
2022/01/10 06:13:46;;;;;;;12.95;2.60;;;;;;;7.77;100.00;100305.16;5023834;28;20481;-83
2022/01/10 06:16:13;;;;;;;9.23;3.10;;;;;;;7.77;100.00;100302.41;5023961;28;20038;-84
2022/01/10 06:18:40;;;;;;;8.55;3.17;;;;;;;7.80;100.00;100307.25;5025232;28;20491;-84
2022/01/10 06:21:06;;;;;;;8.43;3.40;;;;;;;7.80;100.00;100312.75;5024054;28;20037;-84
2022/01/10 06:23:33;;;;;;;11.45;4.18;;;;;;;7.83;100.00;100314.84;5024021;28;20052;-85
2022/01/10 06:26:03;;;;;;;19.65;4.38;;;;;;;7.85;100.00;100323.56;5007444;28;20048;-84
2022/01/10 06:28:31;;;;;;;19.17;5.18;;;;;;;7.87;100.00;100329.53;5023905;28;20084;-85
2022/01/10 06:30:57;;;;;;;9.13;4.03;;;;;;;7.88;100.00;100328.41;5022946;28;20049;-84
2022/01/10 06:33:24;;;;;;;17.23;5.25;;;;;;;7.91;100.00;100335.19;5024316;28;20034;-85
2022/01/10 06:35:51;;;;;;;9.68;3.72;;;;;;;7.92;100.00;100339.53;5024568;28;20051;-84
2022/01/10 06:38:18;;;;;;;14.00;3.90;;;;;;;7.93;100.00;100339.22;5008137;28;20374;-84
2022/01/10 06:40:45;;;;;;;14.45;3.85;;;;;;;7.95;100.00;100345.19;5026243;28;20597;-84
2022/01/10 06:43:11;;;;;;;17.20;3.50;;;;;;;7.96;100.00;100341.31;5006326;28;20453;-84
2022/01/10 06:45:38;;;;;;;14.93;3.80;;;;;;;7.97;100.00;100353.13;5023533;28;20041;-84
2022/01/10 06:48:05;;;;;;;11.45;3.85;;;;;;;7.96;100.00;100335.78;5025814;28;20045;-85
2022/01/10 06:50:32;;;;;;;14.15;3.40;;;;;;;7.99;100.00;100342.59;5025517;28;20037;-84
2022/01/10 06:53:00;;;;;;;11.38;3.80;;;;;;;8.02;100.00;100349.38;5023711;28;20040;-84
2022/01/10 06:55:30;;;;;;;13.75;5.20;;;;;;;8.02;100.00;100355.69;5025172;28;20072;-83
2022/01/10 06:57:56;;;;;;;13.13;5.45;;;;;;;8.03;100.00;100350.97;5025212;28;20026;-84
2022/01/10 07:00:23;;;;;;;19.95;5.20;;;;;;;8.05;100.00;100356.97;5022473;28;20057;-85
2022/01/10 07:02:50;;;;;;;20.92;5.18;;;;;;;8.06;100.00;100355.81;5024244;28;20125;-83
2022/01/10 07:05:17;;;;;;;15.07;5.82;;;;;;;8.08;100.00;100359.03;5024026;28;20441;-83
2022/01/10 07:07:45;;;;;;;17.75;5.10;;;;;;;8.09;100.00;100366.16;5023893;28;20056;-83
2022/01/10 07:10:12;;;;;;;14.43;5.72;;;;;;;8.10;100.00;100370.53;5023052;28;20041;-82
2022/01/10 07:12:39;;;;;;;17.10;5.90;;;;;;;8.10;100.00;100376.84;5022831;28;20069;-85
2022/01/10 07:15:06;;;;;;;20.38;4.88;;;;;;;8.11;100.00;100377.66;5024097;28;20037;-84
2022/01/10 07:17:33;;;;;;;19.65;5.88;;;;;;;8.12;100.00;100379.28;5022303;28;20103;-85
2022/01/10 07:20:00;;;;;;;18.55;5.38;;;;;;;8.13;100.00;100383.66;5019801;28;20704;-83
2022/01/10 07:22:27;;;;;;;13.95;5.03;;;;;;;8.14;100.00;100390.78;5022693;28;20036;-85
2022/01/10 07:24:54;;;;;;;13.02;5.55;;;;;;;8.16;100.00;100402.25;5024288;28;20045;-84
2022/01/10 07:27:21;;;;;;;22.23;6.65;;;;;;;8.17;100.00;100401.13;5023472;28;20079;-82
2022/01/10 07:29:50;;;;;;;21.95;7.35;;;;;;;8.16;100.00;100405.84;5024730;28;20172;-84
2022/01/10 07:32:18;;;;;;;22.65;6.85;;;;;;;8.19;100.00;100409.88;5023548;28;20049;-84
2022/01/10 07:34:45;;;;;;;16.73;6.43;;;;;;;8.20;100.00;100425.28;5021710;28;20124;-85
2022/01/10 07:37:12;;;;;;;16.40;6.57;;;;;;;8.22;100.00;100421.03;5023378;28;20034;-83
2022/01/10 07:39:39;;;;;;;14.05;5.82;;;;;;;8.24;100.00;100426.19;5025362;28;20492;-84
2022/01/10 07:42:06;;;;;;;13.70;6.05;;;;;;;8.25;100.00;100425.06;5020771;28;20481;-84
2022/01/10 07:44:34;;;;;;;19.23;6.90;;;;;;;8.26;100.00;100430.22;5024371;28;20049;-84
2022/01/10 07:47:01;;;;;;;20.75;6.90;;;;;;;8.28;100.00;100429.94;5006822;28;20041;-84
2022/01/10 07:49:28;;;;;;;17.92;6.45;;;;;;;8.30;100.00;100433.97;5023841;28;20374;-84
2022/01/10 07:51:57;;;;;;;20.80;6.47;;;;;;;8.33;100.00;100435.25;5022883;28;20079;-79
2022/01/10 07:54:25;;;;;;;23.45;7.22;;;;;;;8.35;100.00;100438.47;5024239;28;20117;-85
2022/01/10 07:56:52;;;;;;;16.73;5.97;;;;;;;8.40;100.00;100432.75;5005541;28;20037;-84
2022/01/10 07:59:21;;;;;;;18.63;5.53;;;;;;;8.41;100.00;100429.66;5021017;28;20383;-83
2022/01/10 08:01:49;;;;;;;11.70;4.43;;;;;;;8.43;100.00;100434.84;5022273;28;20033;-83
2022/01/10 08:04:16;;;;;;;12.15;4.93;;;;;;;8.45;100.00;100440.81;5024322;28;20064;-84
2022/01/10 08:06:43;;;;;;;14.35;3.88;;;;;;;8.46;100.00;100437.72;5021872;28;20030;-85
2022/01/10 08:09:10;;;;;;;10.10;3.30;;;;;;;8.47;100.00;100438.53;5023116;28;20065;-83
2022/01/10 08:11:37;;;;;;;13.40;3.60;;;;;;;8.47;100.00;100452.34;5021665;28;20055;-83
2022/01/10 08:14:05;;;;;;;10.52;3.90;;;;;;;8.48;100.00;100451.16;5023528;28;20091;-83
2022/01/10 08:16:32;;;;;;;13.63;2.90;;;;;;;8.48;100.00;100462.22;5022921;28;20128;-86
2022/01/10 08:18:59;;;;;;;9.52;2.70;;;;;;;8.53;100.00;100464.75;5006119;28;20049;-84
2022/01/10 08:21:29;;;;;;;7.28;3.03;;;;;;;8.58;100.00;100468.13;5021628;28;20052;-85
2022/01/10 08:23:56;;;;;;;5.35;2.42;;;;;;;8.63;100.00;100480.88;5021805;28;20059;-85
2022/01/10 08:26:22;;;;;;;8.20;2.40;;;;;;;8.67;100.00;100481.03;5023190;28;20084;-85
2022/01/10 08:28:49;;;;;;;8.70;2.67;;;;;;;8.70;100.00;100481.16;5023648;28;20045;-87
2022/01/10 08:31:17;;;;;;;8.02;3.13;;;;;;;8.72;100.00;100489.91;5023118;28;20473;-86
2022/01/10 08:33:45;;;;;;;6.13;3.25;;;;;;;8.71;100.00;100488.28;5010086;28;20560;-86
2022/01/10 08:36:13;;;;;;;6.22;3.20;;;;;;;8.72;100.00;100500.94;5026473;28;20151;-83
2022/01/10 08:38:40;;;;;;;8.57;3.08;;;;;;;8.72;100.00;100495.44;5026239;28;20076;-85
2022/01/10 08:41:07;;;;;;;5.32;2.60;;;;;;;8.73;100.00;100508.09;5027076;28;20492;-84
2022/01/10 08:43:34;;;;;;;4.22;2.38;;;;;;;8.73;100.00;100501.75;5028069;28;20045;-84
2022/01/10 08:46:01;;;;;;;7.45;2.92;;;;;;;8.73;100.00;100501.75;5009590;28;20711;-86
2022/01/10 08:48:28;;;;;;;6.28;2.13;;;;;;;8.75;100.00;100510.50;5010453;28;20072;-84
2022/01/10 08:50:55;;;;;;;5.13;2.30;;;;;;;8.77;100.00;100506.25;5026610;28;20518;-84
2022/01/10 08:53:22;;;;;;;4.25;1.63;;;;;;;8.78;100.00;100510.66;5028648;28;20037;-83
2022/01/10 08:55:52;;;;;;;9.27;1.75;;;;;;;8.79;100.00;100512.25;5025113;28;20045;-84
2022/01/10 08:58:19;;;;;;;4.07;1.70;;;;;;;8.81;100.00;100512.72;5027398;28;20073;-83
2022/01/10 09:00:46;;;;;;;4.95;2.25;;;;;;;8.82;100.00;100517.09;5027089;28;20056;-88
2022/01/10 09:03:13;;;;;;;6.05;2.25;;;;;;;8.83;100.00;100517.91;5009846;28;20409;-90
2022/01/10 09:05:40;;;;;;;4.65;2.00;;;;;;;8.87;100.00;100525.16;5023321;28;20041;-83
2022/01/10 09:08:07;;;;;;;5.82;2.45;;;;;;;8.90;100.00;100530.00;5025283;28;20072;-84
2022/01/10 09:10:34;;;;;;;7.53;2.40;;;;;;;8.91;100.00;100531.63;5026795;28;20061;-83
2022/01/10 09:13:01;;;;;;;4.43;2.00;;;;;;;8.93;100.00;100528.53;5021977;28;20088;-84
2022/01/10 09:15:27;;;;;;;5.47;2.20;;;;;;;8.97;100.00;100535.81;5025048;28;20065;-86
2022/01/10 09:17:55;;;;;;;5.00;2.35;;;;;;;8.99;100.00;100541.78;5006911;28;20037;-85
2022/01/10 09:20:24;;;;;;;7.60;2.90;;;;;;;9.04;100.00;100541.56;5026501;28;20048;-84
2022/01/10 09:22:51;;;;;;;6.05;2.22;;;;;;;9.06;100.00;100547.56;5024792;28;20614;-85
2022/01/10 09:25:18;;;;;;;6.03;1.88;;;;;;;9.10;100.00;100553.22;5025413;28;20072;-85
2022/01/10 09:27:44;;;;;;;4.53;1.98;;;;;;;9.15;100.00;100564.06;5010932;28;20061;-85
2022/01/10 09:30:12;;;;;;;6.38;2.00;;;;;;;9.17;100.00;100557.03;5008686;28;20081;-85
2022/01/10 09:32:41;;;;;;;5.45;1.90;;;;;;;9.23;100.00;100554.06;5010438;28;20148;-85
2022/01/10 09:35:08;;;;;;;4.20;1.92;;;;;;;9.27;100.00;100554.97;5008197;28;20060;-85
2022/01/10 09:37:35;;;;;;;9.20;2.30;;;;;;;9.33;100.00;100559.16;5025786;28;20046;-86
2022/01/10 09:40:06;;;;;;;7.45;1.98;;;;;;;9.36;100.00;100569.53;5024069;28;20057;-86
2022/01/10 09:42:33;;;;;;;8.77;1.75;;;;;;;9.40;100.00;100557.44;5038257;28;20132;-86
2022/01/10 09:45:06;;;;;;;5.22;2.20;;;;;;;9.45;100.00;100571.03;5025953;28;20736;-85
2022/01/10 09:47:36;;;;;;;9.38;3.08;;;;;;;9.49;100.00;100574.75;5009581;28;20142;-85
2022/01/10 09:50:07;;;;;;;4.07;1.52;;;;;;;9.52;100.00;100567.72;5024717;28;20056;-86
2022/01/10 09:52:34;;;;;;;5.70;2.03;;;;;;;9.54;100.00;100562.66;5026399;28;20509;-86
2022/01/10 09:55:01;;;;;;;4.97;2.88;;;;;;;9.57;100.00;100560.00;5025431;28;20072;-87
2022/01/10 09:57:28;;;;;;;6.57;1.67;;;;;;;9.61;100.00;100565.69;5027248;28;20041;-87
2022/01/10 09:59:56;;;;;;;6.82;1.63;;;;;;;9.65;100.00;100572.13;5024747;28;20482;-84
2022/01/10 10:02:34;;;;;;;4.40;1.45;;;;;;;9.69;100.00;100578.56;5025347;28;20532;-81
2022/01/10 10:05:07;;;;;;;9.75;1.80;;;;;;;9.71;100.00;100576.28;5022971;28;20049;-83
2022/01/10 10:07:36;;;;;;;4.53;1.40;;;;;;;9.73;100.00;100576.75;5027346;28;20046;-82
2022/01/10 10:10:08;;;;;;;3.47;1.50;;;;;;;9.74;100.00;100587.44;5013146;28;20044;-82
2022/01/10 10:12:37;;;;;;;1.65;1.08;;;;;;;9.75;100.00;100593.78;5023874;28;20041;-84
2022/01/10 10:15:06;;;;;;;4.10;1.15;;;;;;;9.76;100.00;100596.22;5023582;28;20039;-84
2022/01/10 10:17:36;;;;;;;6.28;1.58;;;;;;;9.78;100.00;100599.44;5007431;28;20042;-83
2022/01/10 10:20:10;;;;;;;6.63;1.52;;;;;;;9.84;100.00;100591.72;5024259;28;20120;-82
2022/01/10 10:22:55;;;;;;;6.65;1.98;;;;;;;9.89;100.00;100604.53;5036554;28;20038;-82
2022/01/10 10:25:22;;;;;;;6.60;1.33;;;;;;;9.93;100.00;100603.47;5023645;28;20042;-77
2022/01/10 10:27:49;;;;;;;7.43;2.22;;;;;;;10.01;100.00;100607.28;5026240;28;20033;-85
2022/01/10 10:30:27;;;;;;;5.32;2.13;;;;;;;10.04;100.00;100601.88;5008002;28;20906;-79
2022/01/10 10:33:19;;;;;;;4.85;2.30;;;;;;;10.08;100.00;100611.13;5025033;28;20041;-83
2022/01/10 10:35:56;;;;;;;10.15;2.45;;;;;;;10.11;100.00;100613.16;5024795;28;20045;-83
2022/01/10 10:38:25;;;;;;;7.20;1.70;;;;;;;10.15;100.00;100619.66;5022766;28;20045;-83
2022/01/10 10:40:52;;;;;;;4.95;1.50;;;;;;;10.21;100.00;100607.22;5022841;28;20053;-83
2022/01/10 10:43:19;;;;;;;7.00;2.13;;;;;;;10.28;100.00;100606.63;5023614;28;20092;-83
2022/01/10 10:45:49;;;;;;;5.70;1.40;;;;;;;10.32;100.00;100611.16;5007231;28;20041;-83
2022/01/10 10:48:17;;;;;;;2.38;1.60;;;;;;;10.40;100.00;100614.94;5023759;28;20780;-83
2022/01/10 10:50:46;;;;;;;8.52;3.95;;;;;;;10.44;100.00;100626.13;5026335;28;20045;-84
2022/01/10 10:53:14;;;;;;;23.73;9.45;;;;;;;10.46;100.00;100626.59;5026023;28;20076;-84
2022/01/10 10:55:45;;;;;;;35.38;22.20;;;;;;;10.51;100.00;100620.81;5023204;28;20136;-83
2022/01/10 10:58:13;;;;;;;22.20;13.35;;;;;;;10.53;100.00;100627.63;5024519;28;20092;-84
2022/01/10 11:00:40;;;;;;;49.78;27.40;;;;;;;10.56;100.00;100612.28;5021937;28;20044;-83
2022/01/10 11:03:09;;;;;;;80.30;43.13;;;;;;;10.61;100.00;100625.88;5024556;28;20044;-83
2022/01/10 11:05:36;;;;;;;11.65;7.13;;;;;;;10.64;100.00;100620.47;5007563;28;20115;-83
2022/01/10 11:08:03;;;;;;;17.50;10.07;;;;;;;10.67;100.00;100630.03;5027496;28;20046;-83
2022/01/10 11:10:31;;;;;;;11.40;6.15;;;;;;;10.73;100.00;100636.91;5022681;28;20068;-84
2022/01/10 11:13:00;;;;;;;14.23;7.13;;;;;;;10.76;100.00;100641.78;5024008;28;20029;-83
2022/01/10 11:15:28;;;;;;;10.30;6.00;;;;;;;10.78;100.00;100647.75;5022406;28;20042;-83
2022/01/10 11:18:06;;;;;;;8.20;5.75;;;;;;;10.81;100.00;100647.06;5019444;28;20128;-84
2022/01/10 11:20:44;;;;;;;8.90;3.25;;;;;;;10.83;100.00;100645.56;5021150;28;20041;-84
2022/01/10 11:23:30;;;;;;;3.70;1.98;;;;;;;10.84;100.00;100651.91;5022487;28;20535;-84
2022/01/10 11:25:58;;;;;;;5.38;2.00;;;;;;;10.85;100.00;100648.81;5027996;28;20100;-81
2022/01/10 11:28:28;;;;;;;4.95;1.90;;;;;;;10.88;100.00;100652.84;5024627;28;20141;-85
2022/01/10 11:31:04;;;;;;;6.75;1.73;;;;;;;10.90;100.00;100648.56;5004987;28;20048;-85
2022/01/10 11:33:36;;;;;;;4.53;1.58;;;;;;;10.91;100.00;100649.34;5021600;28;20034;-84
2022/01/10 11:36:09;;;;;;;2.92;1.30;;;;;;;10.93;100.00;100641.50;5007081;28;20438;-84
2022/01/10 11:38:50;;;;;;;2.00;1.50;;;;;;;10.94;100.00;100651.41;5024314;28;20117;-84
2022/01/10 11:41:29;;;;;;;8.82;2.70;;;;;;;10.96;100.00;100657.44;5023797;28;20412;-82
2022/01/10 11:44:10;;;;;;;4.60;1.33;;;;;;;10.97;100.00;100645.19;5024636;28;20116;-84
2022/01/10 11:46:43;;;;;;;5.68;2.30;;;;;;;10.99;100.00;100649.22;5020648;28;20120;-84
2022/01/10 11:49:13;;;;;;;3.55;1.48;;;;;;;11.01;100.00;100646.13;5008893;28;20080;-85